Cote D IVoirian Star — A8SL4 — position and weather

sailwx.info

Track history (hours):
 
Tides and Currents Weather Stations Pressure Air Temp Water Temp Dewpoint Dewpoint Depression Visibility Wind Speed Wind Dir Waves Ship Positions

Cote D IVoirian Star

Last reported at 2016-May-01 22:31 UTC. Time now 2016-May-01 23:13 UTC.
Position N 51°16' E 004°15'.

Length 185 m; draft 7.5 m.

Type: Cargo ship. MMSI: 636014241.

Date/timePositionNaut miles runAvg speedWind from/ knotsBaromVisibWave heightAir tempDewpointWater temp
2016-May-01 22:31N 51°16' E 004°15'0 0.0
2016-May-01 21:31N 51°16' E 004°15'0 0.0
2016-May-01 20:31N 51°16' E 004°15'0 0.0
2016-May-01 19:31N 51°16' E 004°15'0 0.0
2016-May-01 18:31N 51°16' E 004°15'0 0.0
2016-May-01 17:31N 51°16' E 004°15'0 0.3
2016-May-01 16:33N 51°16' E 004°15'1 1.3
2016-May-01 15:33N 51°16' E 004°17'6 6.1
2016-May-01 14:33N 51°22' E 004°14'1010.1
2016-May-01 13:33N 51°26' E 003°59'1010.4
2016-May-01 12:33N 51°23' E 003°43'8 8.1
2016-May-01 11:34N 51°25' E 003°30'1313.4
2016-May-01 10:33N 51°24' E 003°09'1515.1
2016-May-01 09:33N 51°22' E 002°45'3 3.3
2016-May-01 08:33N 51°25' E 002°43'3 3.5
2016-May-01 07:33N 51°23' E 002°38'1715.5
2016-May-01 06:27N 51°17' E 002°13'1820.1
2016-May-01 05:34N 51°07' E 001°49'2020.2
2016-May-01 04:33N 50°52' E 001°27'4418.3
2016-May-01 02:07N 50°25' E 000°31'1119.8
2016-May-01 01:33N 50°23' E 000°14'1918.7
2016-May-01 00:34N 50°24' W 000°15'2019.5
2016-Apr-30 23:34N 50°32' W 000°43'1414.3
2016-Apr-30 22:34N 50°42' W 000°59'8 7.6
2016-Apr-30 21:34N 50°49' W 001°06'0 0.4
2016-Apr-30 20:33N 50°49' W 001°05'0 0.0
2016-Apr-30 19:33N 50°49' W 001°05'0 0.0
2016-Apr-30 18:33N 50°49' W 001°05'0 0.0
2016-Apr-30 17:33N 50°49' W 001°05'0 0.0
2016-Apr-30 16:33N 50°49' W 001°05'0 0.0
2016-Apr-30 15:33N 50°49' W 001°05'0 0.0
2016-Apr-30 14:33N 50°49' W 001°05'0 0.0
2016-Apr-30 13:33N 50°49' W 001°05'0 0.0
2016-Apr-30 12:33N 50°49' W 001°05'0 0.0
2016-Apr-30 11:33N 50°49' W 001°05'0 0.0
2016-Apr-30 10:33N 50°49' W 001°05'0 0.0
2016-Apr-30 09:33N 50°49' W 001°05'0 0.0
2016-Apr-30 08:33N 50°49' W 001°05'0 0.0
2016-Apr-30 07:33N 50°49' W 001°05'2 1.5
2016-Apr-30 06:33N 50°47' W 001°06'8 7.7
2016-Apr-30 05:34N 50°42' W 000°58'1010.3
2016-Apr-30 04:33N 50°32' W 001°02'0 0.2
2016-Apr-30 03:31N 50°32' W 001°02'3 3.1
2016-Apr-30 02:33N 50°30' W 001°06'7316.9
2016-Apr-29 22:15N 49°52' W 002°43'1318.8
2016-Apr-29 21:33N 49°47' W 003°02'9918.0
2016-Apr-29 16:03N 48°57' W 005°13'1217.4
2016-Apr-29 15:22N 48°50' W 005°27'  
2016-Apr-26 20:05N 30°12' W 015°08'1017.8
2016-Apr-26 19:31N 30°02' W 015°11'1918.1
2016-Apr-26 18:28N 29°44' W 015°17'1718.7
2016-Apr-26 17:33N 29°28' W 015°23'2018.5
2016-Apr-26 16:28N 29°09' W 015°30'1718.8
2016-Apr-26 15:33N 28°52' W 015°36'1918.7
2016-Apr-26 14:33N 28°34' W 015°42'1818.1
2016-Apr-26 13:33N 28°19' W 015°54'2318.1
2016-Apr-26 12:17N 28°02' W 016°10'1317.8
2016-Apr-26 11:33N 27°50' W 016°17'77618.0
2016-Apr-24 16:27N 14°58' W 017°37'1818.2
2016-Apr-24 15:29N 14°40' W 017°34'1111.8
2016-Apr-24 14:33N 14°40' W 017°23'3 2.7
2016-Apr-24 13:33N 14°41' W 017°26'0 0.0
2016-Apr-24 12:33N 14°41' W 017°26'0 0.0
2016-Apr-24 11:33N 14°41' W 017°26'0 0.0
2016-Apr-24 10:33N 14°41' W 017°26'0 0.0
2016-Apr-24 09:33N 14°41' W 017°26'0 0.0
2016-Apr-24 08:33N 14°41' W 017°26'0 0.0
2016-Apr-24 07:33N 14°41' W 017°26'3 3.4
2016-Apr-24 06:33N 14°40' W 017°23'5 5.1
2016-Apr-24 05:33N 14°34' W 017°23'  
Track history (hours):
 
Tides and Currents Weather Stations Pressure Air Temp Water Temp Dewpoint Dewpoint Depression Visibility Wind Speed Wind Dir Waves Ship Positions

Cote D IVoirian Star

Last reported at 2016-May-01 22:31 UTC. Time now 2016-May-01 23:13 UTC.
Position N 51°16' E 004°15'.

Length 185 m; draft 7.5 m.

Type: Cargo ship. MMSI: 636014241.

Date/timePositionNaut miles runAvg speedWind from/ knotsBaromVisibWave heightAir tempDewpointWater temp
2016-May-01 22:31N 51°16' E 004°15'0 0.0
2016-May-01 21:31N 51°16' E 004°15'0 0.0
2016-May-01 20:31N 51°16' E 004°15'0 0.0
2016-May-01 19:31N 51°16' E 004°15'0 0.0
2016-May-01 18:31N 51°16' E 004°15'0 0.0
2016-May-01 17:31N 51°16' E 004°15'0 0.3
2016-May-01 16:33N 51°16' E 004°15'1 1.3
2016-May-01 15:33N 51°16' E 004°17'6 6.1
2016-May-01 14:33N 51°22' E 004°14'1010.1
2016-May-01 13:33N 51°26' E 003°59'1010.4
2016-May-01 12:33N 51°23' E 003°43'8 8.1
2016-May-01 11:34N 51°25' E 003°30'1313.4
2016-May-01 10:33N 51°24' E 003°09'1515.1
2016-May-01 09:33N 51°22' E 002°45'3 3.3
2016-May-01 08:33N 51°25' E 002°43'3 3.5
2016-May-01 07:33N 51°23' E 002°38'1715.5
2016-May-01 06:27N 51°17' E 002°13'1820.1
2016-May-01 05:34N 51°07' E 001°49'2020.2
2016-May-01 04:33N 50°52' E 001°27'4418.3
2016-May-01 02:07N 50°25' E 000°31'1119.8
2016-May-01 01:33N 50°23' E 000°14'1918.7
2016-May-01 00:34N 50°24' W 000°15'2019.5
2016-Apr-30 23:34N 50°32' W 000°43'1414.3
2016-Apr-30 22:34N 50°42' W 000°59'8 7.6
2016-Apr-30 21:34N 50°49' W 001°06'0 0.4
2016-Apr-30 20:33N 50°49' W 001°05'0 0.0
2016-Apr-30 19:33N 50°49' W 001°05'0 0.0
2016-Apr-30 18:33N 50°49' W 001°05'0 0.0
2016-Apr-30 17:33N 50°49' W 001°05'0 0.0
2016-Apr-30 16:33N 50°49' W 001°05'0 0.0
2016-Apr-30 15:33N 50°49' W 001°05'0 0.0
2016-Apr-30 14:33N 50°49' W 001°05'0 0.0
2016-Apr-30 13:33N 50°49' W 001°05'0 0.0
2016-Apr-30 12:33N 50°49' W 001°05'0 0.0
2016-Apr-30 11:33N 50°49' W 001°05'0 0.0
2016-Apr-30 10:33N 50°49' W 001°05'0 0.0
2016-Apr-30 09:33N 50°49' W 001°05'0 0.0
2016-Apr-30 08:33N 50°49' W 001°05'0 0.0
2016-Apr-30 07:33N 50°49' W 001°05'2 1.5
2016-Apr-30 06:33N 50°47' W 001°06'8 7.7
2016-Apr-30 05:34N 50°42' W 000°58'1010.3
2016-Apr-30 04:33N 50°32' W 001°02'0 0.2
2016-Apr-30 03:31N 50°32' W 001°02'3 3.1
2016-Apr-30 02:33N 50°30' W 001°06'7316.9
2016-Apr-29 22:15N 49°52' W 002°43'1318.8
2016-Apr-29 21:33N 49°47' W 003°02'9918.0
2016-Apr-29 16:03N 48°57' W 005°13'1217.4
2016-Apr-29 15:22N 48°50' W 005°27'  
2016-Apr-26 20:05N 30°12' W 015°08'1017.8
2016-Apr-26 19:31N 30°02' W 015°11'1918.1
2016-Apr-26 18:28N 29°44' W 015°17'1718.7
2016-Apr-26 17:33N 29°28' W 015°23'2018.5
2016-Apr-26 16:28N 29°09' W 015°30'1718.8
2016-Apr-26 15:33N 28°52' W 015°36'1918.7
2016-Apr-26 14:33N 28°34' W 015°42'1818.1
2016-Apr-26 13:33N 28°19' W 015°54'2318.1
2016-Apr-26 12:17N 28°02' W 016°10'1317.8
2016-Apr-26 11:33N 27°50' W 016°17'77618.0
2016-Apr-24 16:27N 14°58' W 017°37'1818.2
2016-Apr-24 15:29N 14°40' W 017°34'1111.8
2016-Apr-24 14:33N 14°40' W 017°23'3 2.7
2016-Apr-24 13:33N 14°41' W 017°26'0 0.0
2016-Apr-24 12:33N 14°41' W 017°26'0 0.0
2016-Apr-24 11:33N 14°41' W 017°26'0 0.0
2016-Apr-24 10:33N 14°41' W 017°26'0 0.0
2016-Apr-24 09:33N 14°41' W 017°26'0 0.0
2016-Apr-24 08:33N 14°41' W 017°26'0 0.0
2016-Apr-24 07:33N 14°41' W 017°26'3 3.4
2016-Apr-24 06:33N 14°40' W 017°23'5 5.1
2016-Apr-24 05:33N 14°34' W 017°23'  

Dump ship's entire track history